AUA133N LOWW-LSZH
Flight info
| Callsign | AUA133N |
|---|---|
| Flight time | N/A |
| Altitude | 30000 |
| Route | SOVIL DCT SITNI DCT BAGSI DCT MATIG DCT TRAUN DCT KONIN/N0311F120 L856 NEGRA |
| Aircraft | A320/M-SDE3FGHIRWY/LB1 |
Departure
| Time | 2026-04-30 08:22 |
|---|---|
| Airport | Vienna International Airport (LOWW) |
Arrival
| Time | N/A |
|---|---|
| Airport | Zürich Airport (LSZH) |
| Time | Latitude | Longitude | Altitude | Speed | Heading |
|---|---|---|---|---|---|
| 2026-04-30 08:08 | 48.11443 | 16.57070 | 610 ft | 0 kts | 205° |
| 2026-04-30 08:20 | 48.11436 | 16.57065 | 609 ft | 5 kts | 206° |
| 2026-04-30 08:20 | 48.11399 | 16.57038 | 610 ft | 5 kts | 205° |
| 2026-04-30 08:20 | 48.11372 | 16.57050 | 620 ft | 4 kts | 155° |
| 2026-04-30 08:20 | 48.11345 | 16.57062 | 615 ft | 6 kts | 172° |
| 2026-04-30 08:21 | 48.11279 | 16.57073 | 618 ft | 12 kts | 140° |
| 2026-04-30 08:21 | 48.11237 | 16.57188 | 614 ft | 12 kts | 116° |
| 2026-04-30 08:21 | 48.11178 | 16.57235 | 610 ft | 10 kts | 196° |
| 2026-04-30 08:21 | 48.11121 | 16.57182 | 618 ft | 13 kts | 219° |
| 2026-04-30 08:22 | 48.11101 | 16.56965 | 618 ft | 30 kts | 297° |
| 2026-04-30 08:22 | 48.11317 | 16.56303 | 615 ft | 116 kts | 296° |
| 2026-04-30 08:22 | 48.11780 | 16.54874 | 686 ft | 179 kts | 299° |
| 2026-04-30 08:22 | 48.12187 | 16.53195 | 1522 ft | 174 kts | 274° |
| 2026-04-30 08:23 | 48.11810 | 16.51471 | 2250 ft | 178 kts | 243° |
| 2026-04-30 08:23 | 48.11406 | 16.50370 | 2541 ft | 188 kts | 244° |
| 2026-04-30 08:23 | 48.10517 | 16.47873 | 2890 ft | 218 kts | 245° |
| 2026-04-30 08:23 | 48.10033 | 16.46496 | 3043 ft | 234 kts | 244° |
| 2026-04-30 08:24 | 48.09153 | 16.44298 | 3339 ft | 258 kts | 238° |
| 2026-04-30 08:24 | 48.07720 | 16.41329 | 4090 ft | 270 kts | 234° |
| 2026-04-30 08:24 | 48.06578 | 16.39068 | 4735 ft | 274 kts | 234° |
| 2026-04-30 08:24 | 48.05420 | 16.36786 | 5402 ft | 277 kts | 234° |
| 2026-04-30 08:25 | 48.04299 | 16.34421 | 6056 ft | 280 kts | 242° |
| 2026-04-30 08:25 | 48.03556 | 16.31736 | 6684 ft | 281 kts | 258° |
| 2026-04-30 08:25 | 48.03311 | 16.28853 | 7257 ft | 280 kts | 274° |
| 2026-04-30 08:25 | 48.03375 | 16.25932 | 7800 ft | 283 kts | 275° |
| 2026-04-30 08:26 | 48.03419 | 16.23980 | 8169 ft | 285 kts | 275° |
| 2026-04-30 08:26 | 48.03498 | 16.20041 | 8848 ft | 288 kts | 274° |
| 2026-04-30 08:26 | 48.03552 | 16.17039 | 9385 ft | 291 kts | 274° |
| 2026-04-30 08:26 | 48.03603 | 16.14006 | 9927 ft | 293 kts | 274° |
| 2026-04-30 08:27 | 48.03655 | 16.10927 | 10271 ft | 299 kts | 274° |
| 2026-04-30 08:27 | 48.03689 | 16.08868 | 10574 ft | 301 kts | 274° |
| 2026-04-30 08:27 | 48.03744 | 16.05661 | 10694 ft | 315 kts | 274° |
| 2026-04-30 08:27 | 48.03799 | 16.02318 | 10822 ft | 327 kts | 274° |
| 2026-04-30 08:28 | 48.03854 | 15.98898 | 11059 ft | 331 kts | 274° |
| 2026-04-30 08:28 | 48.03905 | 15.95448 | 11332 ft | 333 kts | 274° |
| 2026-04-30 08:28 | 48.03969 | 15.90852 | 11739 ft | 335 kts | 274° |
| 2026-04-30 08:28 | 48.04003 | 15.88497 | 11958 ft | 336 kts | 274° |
| 2026-04-30 08:29 | 48.04052 | 15.85007 | 12267 ft | 337 kts | 274° |
| 2026-04-30 08:29 | 48.04102 | 15.81554 | 12532 ft | 337 kts | 274° |
| 2026-04-30 08:29 | 48.04154 | 15.78048 | 12792 ft | 338 kts | 274° |
| 2026-04-30 08:29 | 48.04202 | 15.74526 | 13054 ft | 339 kts | 274° |
| 2026-04-30 08:30 | 48.04249 | 15.70993 | 13322 ft | 340 kts | 274° |
| 2026-04-30 08:30 | 48.04296 | 15.67450 | 13599 ft | 342 kts | 274° |
| 2026-04-30 08:30 | 48.04343 | 15.63900 | 13868 ft | 342 kts | 274° |
| 2026-04-30 08:30 | 48.04403 | 15.59182 | 14191 ft | 344 kts | 274° |
| 2026-04-30 08:31 | 48.04431 | 15.56762 | 14331 ft | 345 kts | 274° |
| 2026-04-30 08:31 | 48.04470 | 15.53223 | 14539 ft | 346 kts | 274° |
| 2026-04-30 08:31 | 48.04509 | 15.49626 | 14723 ft | 347 kts | 274° |
| 2026-04-30 08:31 | 48.04548 | 15.46018 | 14910 ft | 348 kts | 274° |
| 2026-04-30 08:32 | 48.04590 | 15.42397 | 15072 ft | 349 kts | 274° |
| 2026-04-30 08:32 | 48.04630 | 15.38762 | 15228 ft | 351 kts | 274° |
| 2026-04-30 08:32 | 48.04672 | 15.35118 | 15377 ft | 351 kts | 275° |
| 2026-04-30 08:32 | 48.04727 | 15.31467 | 15544 ft | 352 kts | 275° |
| 2026-04-30 08:33 | 48.04790 | 15.27801 | 15681 ft | 353 kts | 275° |
| 2026-04-30 08:33 | 48.04853 | 15.24177 | 15803 ft | 354 kts | 275° |
| 2026-04-30 08:33 | 48.04914 | 15.20497 | 15945 ft | 355 kts | 275° |
| 2026-04-30 08:33 | 48.04972 | 15.16801 | 16086 ft | 356 kts | 275° |
| 2026-04-30 08:34 | 48.05029 | 15.13099 | 16221 ft | 357 kts | 275° |
| 2026-04-30 08:34 | 48.05067 | 15.10638 | 16307 ft | 357 kts | 275° |